Schneifelwetter: Wetterstation Hallschlag, 537 m . NN
Wetterdaten: Dienstag, 06.11.2012
Datum Zeit Temp. A. Feuchte A. Luftdruck Regen Wind Richtung Richtung Sonnenschein T Regen Taupunkt Windchill
06.11.2012 00:00 -0,9 C 97 % 1009 hPa 0,0 l/m 10,1 km/h (2 Bft) W22.5 265 0 min 0 min -1,3 C -4,5 C
06.11.2012 00:15 -0,2 C 97 % 1009 hPa 0,0 l/m 7,4 km/h (2 Bft) W 260 0 min 0 min -0,6 C -1,2 C
06.11.2012 00:30 0,5 C 97 % 1009 hPa 0,0 l/m 9,2 km/h (2 Bft) W 270 0 min 0 min 0,1 C -2,2 C
06.11.2012 00:45 1,1 C 97 % 1009 hPa 0,0 l/m 10,5 km/h (2 Bft) W22.5 265 0 min 0 min 0,7 C -2,6 C
06.11.2012 01:00 1,5 C 97 % 1009 hPa 0,0 l/m 12,0 km/h (2 Bft) W22.5 265 0 min 0 min 1,1 C -3,3 C
06.11.2012 01:15 1,5 C 97 % 1010 hPa 0,0 l/m 11,8 km/h (2 Bft) W22.5 265 0 min 0 min 1,1 C -3,1 C
06.11.2012 01:30 1,5 C 97 % 1010 hPa 0,0 l/m 5,2 km/h (1 Bft) W-SW 250 0 min 0 min 1,1 C 1,5 C
06.11.2012 01:45 1,6 C 97 % 1010 hPa 0,0 l/m 7,6 km/h (2 Bft) W-SW 250 0 min 0 min 1,2 C 0,4 C
06.11.2012 02:00 1,8 C 97 % 1010 hPa 0,0 l/m 14,1 km/h (3 Bft) W-SW22.5 255 0 min 0 min 1,4 C -4,3 C
06.11.2012 02:15 1,9 C 98 % 1010 hPa 0,0 l/m 10,0 km/h (2 Bft) W22.5 265 0 min 0 min 1,6 C -1,4 C
06.11.2012 02:30 2,2 C 98 % 1010 hPa 0,0 l/m 12,8 km/h (3 Bft) W45 265 0 min 0 min 1,9 C -3,0 C
06.11.2012 02:45 2,3 C 98 % 1010 hPa 0,0 l/m 13,1 km/h (3 Bft) W22.5 270 0 min 0 min 2,0 C -3,1 C
06.11.2012 03:00 2,3 C 98 % 1010 hPa 0,0 l/m 12,0 km/h (2 Bft) W22.5 270 0 min 0 min 2,0 C -2,4 C
06.11.2012 03:15 2,5 C 98 % 1010 hPa 0,0 l/m 14,3 km/h (3 Bft) W22.5 270 0 min 0 min 2,2 C -3,6 C
06.11.2012 03:30 2,4 C 98 % 1010 hPa 0,0 l/m 14,1 km/h (3 Bft) W45 270 0 min 0 min 2,1 C -3,6 C
06.11.2012 03:45 2,5 C 98 % 1011 hPa 0,0 l/m 18,1 km/h (3 Bft) W45 270 0 min 0 min 2,2 C -5,5 C
06.11.2012 04:00 2,3 C 97 % 1011 hPa 0,0 l/m 10,5 km/h (2 Bft) W-SW 255 0 min 0 min 1,9 C -1,3 C
06.11.2012 04:15 2,2 C 97 % 1011 hPa 0,0 l/m 5,9 km/h (2 Bft) W-SW 250 0 min 0 min 1,8 C 2,2 C
06.11.2012 04:30 2,3 C 97 % 1011 hPa 0,0 l/m 12,5 km/h (3 Bft) W22.5 270 0 min 0 min 1,9 C -2,7 C
06.11.2012 04:45 2,2 C 97 % 1011 hPa 0,0 l/m 5,7 km/h (1 Bft) W22.5 275 0 min 0 min 1,8 C 2,2 C
06.11.2012 05:00 2,3 C 97 % 1011 hPa 0,0 l/m 14,0 km/h (3 Bft) W22.5 260 0 min 0 min 1,9 C -3,6 C
06.11.2012 05:15 2,4 C 97 % 1011 hPa 0,0 l/m 10,0 km/h (2 Bft) W 270 0 min 0 min 2,0 C -0,8 C
06.11.2012 05:30 2,4 C 97 % 1011 hPa 0,0 l/m 7,2 km/h (2 Bft) W-SW22.5 255 0 min 0 min 2,0 C 1,6 C
06.11.2012 05:45 2,5 C 97 % 1012 hPa 0,0 l/m 9,2 km/h (2 Bft) W22.5 260 0 min 0 min 2,1 C -0,1 C
06.11.2012 06:00 2,6 C 97 % 1012 hPa 0,0 l/m 12,0 km/h (2 Bft) W22.5 280 0 min 0 min 2,2 C -2,0 C
06.11.2012 06:15 2,6 C 97 % 1012 hPa 0,0 l/m 11,5 km/h (2 Bft) W45 280 0 min 0 min 2,2 C -1,7 C
06.11.2012 06:30 2,6 C 97 % 1012 hPa 0,0 l/m 10,9 km/h (2 Bft) W22.5 270 0 min 0 min 2,2 C -1,2 C
06.11.2012 06:45 2,6 C 97 % 1012 hPa 0,0 l/m 12,5 km/h (3 Bft) W-NW45 290 0 min 0 min 2,2 C -2,3 C
06.11.2012 07:00 2,7 C 97 % 1012 hPa 0,0 l/m 10,3 km/h (2 Bft) W22.5 265 0 min 0 min 2,3 C -0,7 C
06.11.2012 07:15 2,6 C 96 % 1013 hPa 0,0 l/m 15,6 km/h (3 Bft) W45 265 0 min 0 min 2,0 C -4,2 C
06.11.2012 07:30 2,2 C 96 % 1013 hPa 0,6 l/m 12,6 km/h (3 Bft) W45 275 0 min 15 min 1,6 C -2,9 C
06.11.2012 07:45 2,1 C 96 % 1013 hPa 0,0 l/m 14,6 km/h (3 Bft) W22.5 265 0 min 0 min 1,5 C -4,2 C
06.11.2012 08:00 2,1 C 96 % 1013 hPa 0,0 l/m 11,6 km/h (2 Bft) W22.5 260 0 min 0 min 1,5 C -2,3 C
06.11.2012 08:15 1,8 C 96 % 1014 hPa 0,0 l/m 8,2 km/h (2 Bft) W 265 0 min 0 min 1,2 C 0,1 C
06.11.2012 08:30 1,9 C 96 % 1014 hPa 0,0 l/m 6,5 km/h (2 Bft) W-SW 255 0 min 0 min 1,3 C 1,8 C
06.11.2012 08:45 2,1 C 96 % 1014 hPa 0,0 l/m 6,6 km/h (2 Bft) W 260 0 min 0 min 1,5 C 1,9 C
06.11.2012 09:00 2,5 C 96 % 1014 hPa 0,0 l/m 11,8 km/h (2 Bft) W22.5 260 0 min 0 min 1,9 C -2,0 C
06.11.2012 09:16 2,9 C 96 % 1014 hPa 0,0 l/m 10,0 km/h (2 Bft) W22.5 275 0 min 0 min 2,3 C -0,2 C
06.11.2012 09:30 3,2 C 96 % 1015 hPa 0,0 l/m 11,0 km/h (2 Bft) W-NW22.5 285 0 min 0 min 2,6 C -0,6 C
06.11.2012 09:45 3,4 C 96 % 1015 hPa 0,0 l/m 12,1 km/h (2 Bft) W22.5 275 0 min 0 min 2,8 C -1,2 C
06.11.2012 10:00 3,6 C 95 % 1015 hPa 0,0 l/m 16,2 km/h (3 Bft) W22.5 275 0 min 0 min 2,9 C -3,2 C
06.11.2012 10:15 3,7 C 95 % 1015 hPa 0,0 l/m 9,9 km/h (2 Bft) W22.5 275 0 min 0 min 3,0 C 0,7 C
06.11.2012 10:30 4,4 C 95 % 1015 hPa 0,0 l/m 15,9 km/h (3 Bft) W-SW22.5 255 0 min 0 min 3,7 C -2,1 C
06.11.2012 10:46 4,6 C 93 % 1015 hPa 0,0 l/m 13,4 km/h (3 Bft) W22.5 275 0 min 0 min 3,6 C -0,5 C
06.11.2012 11:00 5,2 C 92 % 1015 hPa 0,0 l/m 11,6 km/h (2 Bft) W22.5 280 0 min 0 min 4,0 C 1,2 C
06.11.2012 11:15 4,9 C 91 % 1016 hPa 0,0 l/m 7,0 km/h (2 Bft) W22.5 280 0 min 0 min 3,6 C 4,4 C
06.11.2012 11:30 5,2 C 89 % 1016 hPa 0,0 l/m 17,3 km/h (3 Bft) W45 275 0 min 0 min 3,5 C -1,8 C
06.11.2012 11:45 5,8 C 86 % 1016 hPa 0,0 l/m 19,9 km/h (4 Bft) W-NW45 285 0 min 0 min 3,6 C -2,1 C
06.11.2012 12:00 5,9 C 85 % 1016 hPa 0,0 l/m 16,4 km/h (3 Bft) W45 270 0 min 0 min 3,6 C -0,5 C
06.11.2012 12:16 6,0 C 84 % 1016 hPa 0,0 l/m 13,1 km/h (3 Bft) W45 260 0 min 0 min 3,5 C 1,3 C
06.11.2012 12:30 5,9 C 86 % 1016 hPa 0,0 l/m 23,8 km/h (4 Bft) W45 265 0 min 0 min 3,7 C -3,3 C
06.11.2012 12:45 6,5 C 85 % 1016 hPa 0,0 l/m 23,5 km/h (4 Bft) W67.5 265 0 min 0 min 4,2 C -2,4 C
06.11.2012 13:00 7,0 C 84 % 1016 hPa 0,0 l/m 19,0 km/h (3 Bft) W45 260 0 min 0 min 4,5 C -0,2 C
06.11.2012 13:15 6,8 C 82 % 1016 hPa 0,0 l/m 14,6 km/h (3 Bft) W22.5 270 0 min 0 min 3,9 C 1,5 C
06.11.2012 13:30 6,3 C 82 % 1016 hPa 0,0 l/m 20,3 km/h (4 Bft) W45 275 0 min 0 min 3,5 C -1,6 C
06.11.2012 13:46 6,7 C 82 % 1017 hPa 0,0 l/m 22,2 km/h (4 Bft) W22.5 270 0 min 0 min 3,8 C -1,8 C
06.11.2012 14:00 6,2 C 82 % 1017 hPa 0,0 l/m 20,9 km/h (4 Bft) W22.5 265 0 min 0 min 3,4 C -2,0 C
06.11.2012 14:15 6,0 C 82 % 1017 hPa 0,0 l/m 16,1 km/h (3 Bft) W22.5 270 0 min 0 min 3,2 C -0,2 C
06.11.2012 14:30 5,6 C 84 % 1017 hPa 0,0 l/m 20,3 km/h (4 Bft) W45 270 0 min 0 min 3,1 C -2,5 C
06.11.2012 14:45 5,6 C 84 % 1017 hPa 0,0 l/m 20,6 km/h (4 Bft) W22.5 260 0 min 0 min 3,1 C -2,6 C
06.11.2012 15:00 5,4 C 84 % 1017 hPa 0,0 l/m 21,8 km/h (4 Bft) W45 270 0 min 0 min 2,9 C -3,3 C
06.11.2012 15:16 5,2 C 85 % 1017 hPa 0,0 l/m 20,1 km/h (4 Bft) W45 270 0 min 0 min 2,9 C -3,0 C
06.11.2012 15:30 5,4 C 85 % 1017 hPa 0,0 l/m 23,8 km/h (4 Bft) W-SW45 255 0 min 0 min 3,1 C -4,0 C
06.11.2012 15:45 5,2 C 85 % 1017 hPa 0,0 l/m 23,1 km/h (4 Bft) W22.5 260 0 min 0 min 2,9 C -4,0 C
06.11.2012 16:00 4,8 C 86 % 1017 hPa 0,0 l/m 19,3 km/h (3 Bft) W-SW22.5 250 0 min 0 min 2,7 C -3,1 C
06.11.2012 16:15 4,6 C 86 % 1017 hPa 0,0 l/m 28,3 km/h (4 Bft) W22.5 265 0 min 0 min 2,5 C -6,5 C
06.11.2012 16:30 4,4 C 86 % 1017 hPa 0,0 l/m 21,0 km/h (4 Bft) W22.5 260 0 min 0 min 2,3 C -4,3 C
06.11.2012 16:46 4,1 C 87 % 1017 hPa 0,0 l/m 20,0 km/h (4 Bft) W-SW22.5 250 0 min 0 min 2,1 C -4,3 C
06.11.2012 17:00 3,8 C 87 % 1017 hPa 0,0 l/m 18,0 km/h (3 Bft) W-SW22.5 250 0 min 0 min 1,8 C -3,9 C
06.11.2012 17:15 3,3 C 87 % 1017 hPa 0,0 l/m 19,8 km/h (3 Bft) W-SW45 255 0 min 0 min 1,3 C -5,3 C
06.11.2012 17:30 2,9 C 88 % 1017 hPa 0,0 l/m 15,8 km/h (3 Bft) W-SW22.5 255 0 min 0 min 1,1 C -3,9 C
06.11.2012 17:45 2,3 C 89 % 1017 hPa 0,0 l/m 14,0 km/h (3 Bft) W-SW22.5 255 0 min 0 min 0,7 C -3,6 C
06.11.2012 18:00 2,3 C 90 % 1017 hPa 0,0 l/m 18,3 km/h (3 Bft) W-SW22.5 250 0 min 0 min 0,8 C -5,9 C
06.11.2012 18:16 2,4 C 91 % 1017 hPa 0,0 l/m 16,8 km/h (3 Bft) W-SW22.5 250 0 min 0 min 1,1 C -5,0 C
06.11.2012 18:30 2,7 C 92 % 1017 hPa 0,0 l/m 18,8 km/h (3 Bft) W-SW22.5 245 0 min 0 min 1,5 C -5,6 C
06.11.2012 18:45 2,7 C 92 % 1017 hPa 0,0 l/m 21,2 km/h (4 Bft) W-SW22.5 250 0 min 0 min 1,5 C -6,6 C
06.11.2012 19:00 2,7 C 92 % 1017 hPa 0,0 l/m 15,1 km/h (3 Bft) W-SW22.5 250 0 min 0 min 1,5 C -3,8 C
06.11.2012 19:15 2,8 C 93 % 1017 hPa 0,0 l/m 18,9 km/h (3 Bft) W-SW22.5 245 0 min 0 min 1,8 C -5,5 C
06.11.2012 19:30 2,9 C 93 % 1018 hPa 0,0 l/m 26,1 km/h (4 Bft) W-SW45 245 0 min 0 min 1,9 C -8,2 C
06.11.2012 19:46 2,9 C 93 % 1018 hPa 0,0 l/m 31,6 km/h (5 Bft) W-SW45 255 0 min 0 min 1,9 C -9,8 C
06.11.2012 20:00 3,0 C 93 % 1018 hPa 0,0 l/m 30,2 km/h (5 Bft) W22.5 260 0 min 0 min 2,0 C -9,2 C
06.11.2012 20:15 3,1 C 93 % 1017 hPa 0,0 l/m 31,0 km/h (5 Bft) W-SW67.5 250 0 min 0 min 2,1 C -9,3 C
06.11.2012 20:30 3,2 C 93 % 1017 hPa 0,0 l/m 30,6 km/h (5 Bft) W67.5 260 0 min 0 min 2,2 C -9,1 C
06.11.2012 20:45 3,3 C 93 % 1017 hPa 0,0 l/m 35,9 km/h (5 Bft) W22.5 260 0 min 0 min 2,3 C -10,2 C
06.11.2012 20:46 3,3 C 93 % 1017 hPa 0,0 l/m 35,9 km/h (5 Bft) W22.5 260 0 min 0 min 2,3 C -10,2 C
06.11.2012 21:00 3,4 C 93 % 1017 hPa 0,0 l/m 28,2 km/h (4 Bft) W-SW45 250 0 min 0 min 2,4 C -8,1 C
06.11.2012 21:15 3,3 C 93 % 1018 hPa 0,0 l/m 29,5 km/h (5 Bft) W-SW45 255 0 min 0 min 2,3 C -8,6 C
06.11.2012 21:30 3,3 C 93 % 1018 hPa 0,0 l/m 23,0 km/h (4 Bft) W-SW22.5 255 0 min 0 min 2,3 C -6,5 C
06.11.2012 21:45 3,4 C 93 % 1018 hPa 0,0 l/m 35,6 km/h (5 Bft) W22.5 265 0 min 0 min 2,4 C -10,0 C
06.11.2012 22:00 3,5 C 93 % 1018 hPa 0,0 l/m 27,8 km/h (4 Bft) W-SW22.5 255 0 min 0 min 2,5 C -7,9 C
06.11.2012 22:16 3,5 C 92 % 1018 hPa 0,0 l/m 41,9 km/h (6 Bft) W-SW67.5 250 0 min 0 min 2,3 C -11,1 C
06.11.2012 22:30 3,5 C 92 % 1017 hPa 0,0 l/m 39,8 km/h (6 Bft) W-SW45 255 0 min 0 min 2,3 C -10,7 C
06.11.2012 22:45 3,4 C 93 % 1018 hPa 0,0 l/m 45,4 km/h (6 Bft) W45 265 0 min 0 min 2,4 C -11,8 C
06.11.2012 23:00 3,3 C 93 % 1018 hPa 0,0 l/m 37,4 km/h (5 Bft) W45 260 0 min 0 min 2,3 C -10,5 C
06.11.2012 23:15 3,1 C 93 % 1018 hPa 0,3 l/m 34,9 km/h (5 Bft) W45 265 0 min 15 min 2,1 C -10,3 C
06.11.2012 23:30 3,0 C 94 % 1018 hPa 0,3 l/m 41,5 km/h (6 Bft) W-SW22.5 255 0 min 15 min 2,1 C -11,8 C
06.11.2012 23:46 2,9 C 94 % 1018 hPa 0,0 l/m 32,6 km/h (5 Bft) W22.5 260 0 min 0 min 2,0 C -10,0 C
06.11.2012 23:54 2,7 C 94 % 1018 hPa 0,3 l/m 38,2 km/h (5 Bft) W45 265 0 min 8 min 1,8 C -11,6 C
_ Min-Zeit 00:00 13:15 00:00 - 01:30 - - - - 00:00 22:45
Minimum _ -0,9 C 82 % 1009 hPa - 5,2 km/h (1 Bft) - - - - -1,3 C -11,8 C
_ Max-Zeit 13:00 02:15 19:30 07:30 22:45 - - 00:00 07:30 13:00 11:15
Maximum _ 7,0 C 98 % 1018 hPa 0,6 l/m 45,4 km/h
W (6 Bft)
- - 0 min 15 min 4,5 C 4,4 C
Durchschnitt _ 3,3 C 92 % 1015 hPa #1,5 l/m 18,2 km/h (3 Bft) W - #0 min. #53 min. 2,2 C -3,6 C